Mount Vernon, IA (52314)

4:00 PM CDT on September 19, 2014 (GMT -0500)
KIALISBO2 | Change Station
CLOSE
Current Station
Personal Weather Station
Location: Lisbon, IA
Elevation: 856 ft
Nearby Weather Stations

Elev 856 ft 41.92 °N, 91.39 °W | Updated 14 minutes ago

Clear
Clear
78.8 °F
Feels Like 79 °F
N
6.3
Wind Variable Wind from WSW

Today
High -- | Low -- °F
--% Chance of Precip.
Yesterday
High -- | Low -- °F
Precip. -- in
6:50 AM 7:08 PM
Waning Crescent, 17% visible
Pressure 29.93 in
Visibility 10.0 miles
Clouds Clear
Heat Index 79 °F
Dew Point 54 °F
Humidity 43%
Rainfall 0.00 in
Snow Depth Not available.
UV 4 out of 12
Pollen 5.60 out of 12
Air Quality Not available.
Flu Activity Not available.
METAR KCID 192052Z 17015G23KT 10SM CLR 23/15 A2993 RMK AO2 SLP134 T02330150 56025

More Conditions Fewer Conditions

Pressure 29.93 in
Visibility 10.0 miles
Clouds Clear
Heat Index 79 °F
Dew Point 54 °F
Humidity 43%
Rainfall 0.00 in
Snow Depth Not available.
UV 4 out of 12
Pollen 5.60 out of 12
Air Quality Not available.
Flu Activity Not available.
METAR KCID 192052Z 17015G23KT 10SM CLR 23/15 A2993 RMK AO2 SLP134 T02330150 56025

More Conditions Fewer Conditions

10-Day Weather Forecast

Almanac

Astronomy

Sep. 19, 2014 Rise Set
Actual Time 6:50 AM CDT 7:08 PM CDT
Civil Twilight 6:22 AM CDT 7:36 PM CDT
Nautical Twilight 5:49 AM CDT 8:08 PM CDT
Astronomical Twilight 5:15 AM CDT 8:42 PM CDT
Moon 2:32 AM CDT 4:40 PM CDT
Length of Visible Light 13h 13m
Length of Day
12h 18m
Tomorrow will be 2m 47s shorter.
Waning Crescent, 17% of the Moon is Illuminated
Today
Waning Crescent
Sep 24
New
Oct 1
First Quarter
Oct 8
Full
Oct 15
Last Quarter

Today's Extremes

State Highs State Lows

Community

WunderPhotos

Upload Photos

1,754,699 photos uploaded!

WunderBlogs® & News

By Dr. Jeff Masters
Director of Meteorology, Weather Underground
By Kari Strenfel
Meteorologist, Weather Underground
By Christopher C. Burt
Weather Historian, Weather Underground
September 19, 2014
September 19, 2014
September 19, 2014

Nearby

Snow Depth

Station Depth Elevation
No new snow has been reported.

Earthquake Activity

City Distance Mag. Time & Date
No recent earthquake activity has been reported nearby.
Minimum magnitude displayed is 2.5.

Coastal Water Temperatures

Place Temperature
No Stations Reporting

Nearby Weather Stations